createdAt,value
2023-01-29T00:00:09.999Z,3.08
2023-01-29T00:02:37.653Z,3.15
2023-01-29T00:05:21.000Z,3.40
2023-01-29T00:07:53.355Z,4.30
2023-01-29T00:10:19.971Z,3.92
2023-01-29T00:12:46.542Z,3.83
2023-01-29T00:15:13.113Z,4.18
2023-01-29T00:17:41.390Z,4.50
2023-01-29T00:20:08.995Z,4.25
2023-01-29T00:22:36.570Z,4.50
2023-01-29T00:25:03.614Z,4.47
2023-01-29T00:27:32.040Z,4.35
2023-01-29T00:30:12.840Z,4.90
2023-01-29T00:32:40.719Z,4.70
2023-01-29T00:35:08.584Z,4.72
2023-01-29T00:37:35.539Z,4.50
2023-01-29T00:40:02.185Z,4.93
2023-01-29T00:42:47.495Z,4.28
2023-01-29T00:45:14.495Z,5.20
2023-01-29T00:47:41.094Z,4.75
2023-01-29T00:50:11.152Z,4.40
2023-01-29T00:52:38.388Z,4.10
2023-01-29T00:55:06.141Z,5.15
2023-01-29T00:57:37.034Z,4.57
2023-01-29T01:00:07.814Z,4.68
2023-01-29T01:02:53.301Z,4.20
2023-01-29T01:05:20.397Z,4.00
2023-01-29T01:07:57.091Z,4.72
2023-01-29T01:10:28.849Z,4.97
2023-01-29T01:13:02.735Z,5.28
2023-01-29T01:15:36.393Z,4.75
2023-01-29T01:18:04.996Z,4.25
2023-01-29T01:20:35.000Z,4.88
2023-01-29T01:23:02.671Z,4.38
2023-01-29T01:25:29.304Z,4.50
2023-01-29T01:30:26.390Z,4.22
2023-01-29T01:32:53.681Z,4.57
2023-01-29T01:35:20.348Z,5.10
2023-01-29T01:37:46.909Z,4.95
2023-01-29T01:40:18.981Z,4.75
2023-01-29T01:42:56.329Z,4.50
2023-01-29T01:45:25.797Z,4.35
2023-01-29T01:48:14.356Z,5.00
2023-01-29T01:51:05.675Z,4.90
2023-01-29T01:53:41.919Z,5.15
2023-01-29T01:56:16.726Z,4.53
2023-01-29T01:58:52.184Z,5.03
2023-01-29T02:01:26.317Z,4.65
2023-01-29T02:04:26.703Z,4.93
2023-01-29T02:07:13.306Z,4.55
2023-01-29T02:09:47.658Z,4.80
2023-01-29T02:12:16.918Z,4.40
2023-01-29T02:14:44.415Z,4.40
2023-01-29T02:17:16.893Z,4.35
2023-01-29T02:20:27.252Z,3.83
2023-01-29T02:23:27.046Z,3.47
2023-01-29T02:26:10.799Z,3.85
2023-01-29T02:28:45.348Z,3.53
2023-01-29T02:31:40.107Z,4.03
2023-01-29T02:34:25.908Z,3.72
2023-01-29T02:37:09.415Z,3.70
2023-01-29T02:40:07.953Z,3.50
2023-01-29T02:42:54.123Z,3.70
2023-01-29T02:45:48.198Z,4.30
2023-01-29T02:48:22.571Z,3.67
2023-01-29T02:51:10.958Z,4.10
2023-01-29T02:54:02.763Z,3.65
2023-01-29T02:56:54.360Z,3.38
2023-01-29T02:59:35.461Z,3.85
2023-01-29T03:02:19.109Z,4.03
2023-01-29T03:04:53.821Z,4.00
2023-01-29T03:07:44.569Z,3.80
2023-01-29T03:10:31.002Z,4.15
2023-01-29T03:13:15.146Z,3.97
2023-01-29T03:16:16.009Z,3.75
2023-01-29T03:18:57.382Z,3.70
2023-01-29T03:21:59.859Z,3.97
2023-01-29T03:24:58.677Z,3.80
2023-01-29T03:27:51.742Z,4.25
2023-01-29T03:30:38.609Z,4.10
2023-01-29T03:33:10.152Z,3.92
2023-01-29T03:35:44.673Z,4.18
2023-01-29T03:38:11.822Z,3.97
2023-01-29T03:41:12.619Z,3.80
2023-01-29T03:43:55.057Z,3.78
2023-01-29T03:46:40.766Z,3.97
2023-01-29T03:49:21.851Z,4.05
2023-01-29T03:52:13.890Z,4.40
2023-01-29T03:55:01.011Z,4.20
2023-01-29T03:58:32.102Z,3.83
2023-01-29T04:01:04.859Z,4.05
2023-01-29T04:03:38.369Z,4.50
2023-01-29T04:06:21.251Z,3.70
2023-01-29T04:09:10.797Z,4.85
2023-01-29T04:11:43.294Z,4.70
2023-01-29T04:14:10.034Z,4.40
2023-01-29T04:16:42.172Z,4.50
2023-01-29T04:19:08.839Z,4.18
2023-01-29T04:21:37.483Z,4.38
2023-01-29T04:24:06.450Z,4.25
2023-01-29T04:27:21.542Z,4.13
2023-01-29T04:30:11.828Z,4.50
2023-01-29T04:33:11.367Z,4.13
2023-01-29T04:36:29.438Z,4.22
2023-01-29T04:39:22.300Z,4.25
2023-01-29T04:42:05.794Z,5.03
2023-01-29T04:44:49.765Z,4.32
2023-01-29T04:47:44.883Z,4.72
2023-01-29T04:50:44.257Z,5.20
2023-01-29T04:53:32.127Z,5.43
2023-01-29T04:56:18.767Z,5.20
2023-01-29T04:58:55.813Z,4.75
2023-01-29T05:01:29.627Z,4.85
2023-01-29T05:03:57.172Z,5.03
2023-01-29T05:06:25.226Z,5.47
2023-01-29T05:08:53.602Z,4.97
2023-01-29T05:11:20.953Z,4.95
2023-01-29T05:13:53.915Z,4.78
2023-01-29T05:16:27.086Z,5.35
2023-01-29T05:18:54.050Z,4.68
2023-01-29T05:21:22.983Z,4.90
2023-01-29T05:24:12.639Z,5.03
2023-01-29T05:26:58.398Z,4.85
2023-01-29T05:29:24.980Z,4.68
2023-01-29T05:31:53.696Z,5.40
2023-01-29T05:34:20.647Z,4.85
2023-01-29T05:36:47.210Z,5.13
2023-01-29T05:39:13.980Z,5.10
2023-01-29T05:41:40.773Z,5.25
2023-01-29T05:44:07.431Z,5.00
2023-01-29T05:46:34.105Z,5.25
2023-01-29T05:49:00.727Z,4.90
2023-01-29T05:51:32.000Z,5.25
2023-01-29T05:54:01.495Z,5.18
2023-01-29T05:56:28.121Z,4.97
2023-01-29T05:58:55.423Z,5.32
2023-01-29T06:01:25.401Z,5.53
2023-01-29T06:03:52.184Z,4.90
2023-01-29T06:06:18.938Z,5.72
2023-01-29T06:08:45.804Z,5.38
2023-01-29T06:11:14.487Z,5.20
2023-01-29T06:13:41.251Z,5.65
2023-01-29T06:16:09.446Z,5.53
2023-01-29T06:18:40.366Z,5.15
2023-01-29T06:21:11.949Z,6.18
2023-01-29T06:23:38.990Z,6.03
2023-01-29T06:26:13.275Z,5.80
2023-01-29T06:28:40.179Z,5.90
2023-01-29T06:31:26.574Z,5.85
2023-01-29T06:33:54.969Z,6.10
2023-01-29T06:36:31.657Z,6.35
2023-01-29T06:38:58.241Z,6.47
2023-01-29T06:41:25.503Z,6.45
2023-01-29T06:43:52.951Z,6.40
2023-01-29T06:46:19.989Z,6.60
2023-01-29T06:48:46.693Z,7.28
2023-01-29T06:51:13.344Z,7.13
2023-01-29T06:53:43.360Z,7.05
2023-01-29T06:56:11.245Z,7.45
2023-01-29T06:58:38.501Z,7.03
2023-01-29T07:01:15.494Z,7.30
2023-01-29T07:03:52.340Z,6.68
2023-01-29T07:06:19.564Z,6.63
2023-01-29T07:08:46.446Z,7.70
2023-01-29T07:11:13.075Z,8.18
2023-01-29T07:13:39.742Z,8.20
2023-01-29T07:16:07.401Z,8.35
2023-01-29T07:18:34.028Z,8.27
2023-01-29T07:21:06.372Z,7.60
2023-01-29T07:23:34.769Z,7.65
2023-01-29T07:26:04.580Z,8.23
2023-01-29T07:28:31.211Z,8.18
2023-01-29T07:31:00.771Z,8.05
2023-01-29T07:33:27.464Z,8.02
2023-01-29T07:35:54.025Z,8.38
2023-01-29T07:38:20.828Z,9.90
2023-01-29T07:40:47.875Z,8.73
2023-01-29T07:43:14.882Z,7.95
2023-01-29T07:45:41.584Z,9.60
2023-01-29T07:48:12.102Z,10.68
2023-01-29T07:50:39.769Z,11.70
2023-01-29T07:53:06.434Z,10.77
2023-01-29T07:55:33.732Z,9.38
2023-01-29T07:58:02.992Z,8.98
2023-01-29T08:00:31.199Z,9.20
2023-01-29T08:03:07.344Z,9.45
2023-01-29T08:05:34.241Z,11.20
2023-01-29T08:08:06.858Z,10.45
2023-01-29T08:10:35.827Z,9.70
2023-01-29T08:13:04.368Z,10.27
2023-01-29T08:15:32.030Z,10.38
2023-01-29T08:17:58.855Z,10.98
2023-01-29T08:20:26.025Z,11.13
2023-01-29T08:23:21.985Z,12.57
2023-01-29T08:25:48.573Z,11.43
2023-01-29T08:28:15.240Z,11.50
2023-01-29T08:30:41.964Z,12.25
2023-01-29T08:33:08.639Z,12.25
2023-01-29T08:35:35.415Z,12.02
2023-01-29T08:38:04.788Z,12.43
2023-01-29T08:40:34.464Z,13.68
2023-01-29T08:43:05.491Z,12.45
2023-01-29T08:45:40.173Z,12.68
2023-01-29T08:48:08.041Z,13.05
2023-01-29T08:50:38.052Z,12.85
2023-01-29T08:53:14.722Z,12.77
2023-01-29T08:55:42.193Z,12.38
2023-01-29T08:58:11.535Z,11.85
2023-01-29T09:00:38.920Z,12.70
2023-01-29T09:03:07.598Z,11.90
2023-01-29T09:05:39.168Z,13.48
2023-01-29T09:08:15.853Z,12.32
2023-01-29T09:10:42.465Z,12.25
2023-01-29T09:13:09.074Z,13.23
2023-01-29T09:15:35.631Z,13.30
2023-01-29T09:18:05.859Z,13.85
2023-01-29T09:20:33.234Z,13.77
2023-01-29T09:23:08.030Z,13.82
2023-01-29T09:25:35.494Z,14.50
2023-01-29T09:28:02.136Z,14.45
2023-01-29T09:30:29.567Z,12.57
2023-01-29T09:32:56.166Z,12.98
2023-01-29T09:35:25.726Z,13.60
2023-01-29T09:38:01.053Z,13.90
2023-01-29T09:40:51.572Z,14.13
2023-01-29T09:43:48.246Z,13.63
2023-01-29T09:46:23.853Z,15.07
2023-01-29T09:49:01.933Z,14.20
2023-01-29T09:51:35.501Z,15.10
2023-01-29T09:54:27.376Z,14.98
2023-01-29T09:56:57.114Z,14.98
2023-01-29T09:59:27.292Z,17.05
2023-01-29T10:02:16.012Z,15.23
2023-01-29T10:05:24.727Z,14.30
2023-01-29T10:08:29.541Z,17.92
2023-01-29T10:11:42.509Z,17.30
2023-01-29T10:14:44.287Z,17.13
2023-01-29T10:17:42.405Z,18.63
2023-01-29T10:20:30.559Z,15.35
2023-01-29T10:23:19.071Z,15.15
2023-01-29T10:25:47.243Z,15.57
2023-01-29T10:28:24.355Z,14.88
2023-01-29T10:31:00.593Z,13.95
2023-01-29T10:34:03.351Z,16.30
2023-01-29T10:36:44.752Z,14.45
2023-01-29T10:39:23.416Z,13.55
2023-01-29T10:42:00.669Z,20.92
2023-01-29T10:44:54.852Z,18.95
2023-01-29T10:48:04.736Z,18.75
2023-01-29T10:51:18.598Z,15.05
2023-01-29T10:54:21.490Z,16.30
2023-01-29T10:57:16.934Z,17.10
2023-01-29T10:59:55.468Z,21.27
2023-01-29T11:02:22.579Z,18.98
2023-01-29T11:04:49.356Z,16.25
2023-01-29T11:07:19.676Z,17.33
2023-01-29T11:09:57.742Z,15.68
2023-01-29T11:12:30.567Z,13.68
2023-01-29T11:15:22.580Z,13.70
2023-01-29T11:18:03.647Z,12.45
2023-01-29T11:20:32.076Z,14.25
2023-01-29T11:23:00.187Z,13.32
2023-01-29T11:25:28.770Z,12.65
2023-01-29T11:28:01.818Z,12.43
2023-01-29T11:30:34.170Z,12.38
2023-01-29T11:33:20.608Z,12.40
2023-01-29T11:35:47.425Z,13.70
2023-01-29T11:38:21.007Z,12.73
2023-01-29T11:40:48.633Z,11.98
2023-01-29T11:43:32.478Z,12.57
2023-01-29T11:46:12.302Z,13.13
2023-01-29T11:48:48.778Z,13.30
2023-01-29T11:51:28.353Z,17.15
2023-01-29T11:54:05.930Z,15.15
2023-01-29T11:56:42.821Z,13.23
2023-01-29T11:59:40.458Z,12.75
2023-01-29T12:02:27.903Z,13.95
2023-01-29T12:04:58.309Z,13.77
2023-01-29T12:07:25.356Z,13.60
2023-01-29T12:09:58.597Z,14.55
2023-01-29T12:12:35.633Z,12.55
2023-01-29T12:15:19.546Z,12.95
2023-01-29T12:18:06.276Z,12.32
2023-01-29T12:21:01.170Z,13.05
2023-01-29T12:23:41.925Z,11.57
2023-01-29T12:26:41.061Z,11.82
2023-01-29T12:29:33.600Z,12.55
2023-01-29T12:32:39.791Z,10.60
2023-01-29T12:35:36.571Z,11.65
2023-01-29T12:38:18.042Z,12.50
2023-01-29T12:40:55.195Z,13.18
2023-01-29T12:43:44.446Z,11.93
2023-01-29T12:46:32.883Z,13.05
2023-01-29T12:49:04.912Z,12.60
2023-01-29T12:51:40.871Z,13.07
2023-01-29T12:54:13.245Z,13.20
2023-01-29T12:56:47.059Z,12.85
2023-01-29T12:59:30.386Z,13.93
2023-01-29T13:02:09.767Z,13.05
2023-01-29T13:04:48.490Z,13.88
2023-01-29T13:07:27.337Z,12.52
2023-01-29T13:10:07.460Z,13.73
2023-01-29T13:12:35.862Z,12.98
2023-01-29T13:15:28.825Z,13.07
2023-01-29T13:18:37.976Z,12.52
2023-01-29T13:21:05.665Z,11.70
2023-01-29T13:23:38.093Z,12.38
2023-01-29T13:26:05.844Z,12.35
2023-01-29T13:28:33.539Z,11.60
2023-01-29T13:31:20.859Z,12.65
2023-01-29T13:34:11.532Z,12.85
2023-01-29T13:36:44.371Z,12.63
2023-01-29T13:39:44.492Z,11.75
2023-01-29T13:42:25.148Z,13.57
2023-01-29T13:44:55.922Z,14.18
2023-01-29T13:47:32.039Z,12.25
2023-01-29T13:50:07.942Z,14.32
2023-01-29T13:53:03.811Z,12.30
2023-01-29T13:55:39.834Z,11.48
2023-01-29T13:58:13.887Z,11.68
2023-01-29T14:00:40.412Z,11.05
2023-01-29T14:03:14.397Z,9.98
2023-01-29T14:05:43.546Z,11.13
2023-01-29T14:08:12.849Z,11.65
2023-01-29T14:10:43.476Z,14.60
2023-01-29T14:13:27.681Z,11.73
2023-01-29T14:15:57.157Z,11.30
2023-01-29T14:18:26.267Z,9.95
2023-01-29T14:21:16.185Z,10.15
2023-01-29T14:23:52.697Z,9.88
2023-01-29T14:26:43.487Z,11.68
2023-01-29T14:29:16.464Z,10.77
2023-01-29T14:31:59.937Z,10.18
2023-01-29T14:34:44.896Z,10.10
2023-01-29T14:37:19.434Z,9.98
2023-01-29T14:39:51.441Z,9.20
2023-01-29T14:42:26.931Z,9.60
2023-01-29T14:45:07.258Z,9.55
2023-01-29T14:47:33.793Z,9.65
2023-01-29T14:50:29.218Z,9.77
2023-01-29T14:53:27.872Z,9.32
2023-01-29T14:56:24.910Z,9.02
2023-01-29T14:58:59.113Z,9.30
2023-01-29T15:01:35.893Z,10.65
2023-01-29T15:04:31.805Z,10.68
2023-01-29T15:07:07.337Z,8.98
2023-01-29T15:09:46.322Z,9.13
2023-01-29T15:12:45.389Z,8.70
2023-01-29T15:15:33.939Z,8.57
2023-01-29T15:18:16.089Z,8.75
2023-01-29T15:20:43.976Z,13.57
2023-01-29T15:23:32.920Z,11.38
2023-01-29T15:26:03.172Z,6.55
2023-01-29T15:28:32.296Z,7.20
2023-01-29T15:31:04.076Z,11.13
2023-01-29T15:33:32.021Z,7.55
2023-01-29T15:36:07.996Z,7.30
2023-01-29T15:38:35.513Z,6.47
2023-01-29T15:41:15.736Z,7.05
2023-01-29T15:43:55.952Z,7.90
2023-01-29T15:46:34.124Z,6.38
2023-01-29T15:49:07.320Z,7.65
2023-01-29T15:51:34.790Z,6.68
2023-01-29T15:54:10.455Z,7.10
2023-01-29T15:56:50.624Z,7.82
2023-01-29T15:59:22.774Z,6.75
2023-01-29T16:01:49.433Z,8.48
2023-01-29T16:04:26.784Z,9.40
2023-01-29T16:06:58.311Z,8.98
2023-01-29T16:09:27.179Z,9.45
2023-01-29T16:11:57.542Z,9.68
2023-01-29T16:14:25.610Z,8.70
2023-01-29T16:16:53.616Z,9.23
2023-01-29T16:19:27.487Z,9.10
2023-01-29T16:22:01.434Z,8.88
2023-01-29T16:24:30.977Z,8.00
2023-01-29T16:27:13.508Z,10.98
2023-01-29T16:29:40.363Z,7.20
2023-01-29T16:32:08.941Z,6.03
2023-01-29T16:34:43.426Z,6.45
2023-01-29T16:37:27.839Z,6.88
2023-01-29T16:39:55.108Z,5.80
2023-01-29T16:42:27.237Z,5.95
2023-01-29T16:45:06.255Z,6.22
2023-01-29T16:47:39.169Z,6.65
2023-01-29T16:50:40.486Z,6.05
2023-01-29T16:53:24.397Z,5.85
2023-01-29T16:55:52.282Z,7.38
2023-01-29T16:58:28.051Z,7.20
2023-01-29T17:01:11.793Z,7.60
2023-01-29T17:03:40.129Z,11.52
2023-01-29T17:06:21.547Z,13.38
2023-01-29T17:08:48.356Z,10.13
2023-01-29T17:11:30.402Z,8.70
2023-01-29T17:14:03.929Z,9.10
2023-01-29T17:16:34.956Z,19.83
2023-01-29T17:19:01.746Z,16.17
2023-01-29T17:21:31.342Z,12.15
2023-01-29T17:23:57.937Z,8.57
2023-01-29T17:26:24.739Z,7.20
2023-01-29T17:28:52.457Z,7.45
2023-01-29T17:31:19.229Z,6.93
2023-01-29T17:33:46.070Z,8.20
2023-01-29T17:36:17.217Z,7.15
2023-01-29T17:38:44.489Z,6.88
2023-01-29T17:41:26.212Z,7.10
2023-01-29T17:43:52.801Z,6.60
2023-01-29T17:46:20.330Z,7.65
2023-01-29T17:48:49.061Z,6.72
2023-01-29T17:51:17.777Z,6.95
2023-01-29T17:53:46.847Z,8.05
2023-01-29T17:56:23.466Z,8.30
2023-01-29T17:58:50.180Z,9.93
2023-01-29T18:01:16.814Z,9.80
2023-01-29T18:03:43.506Z,8.88
2023-01-29T18:06:21.701Z,8.82
2023-01-29T18:08:48.250Z,8.05
2023-01-29T18:11:15.122Z,8.77
2023-01-29T18:13:41.931Z,7.53
2023-01-29T18:16:09.186Z,8.95
2023-01-29T18:18:35.933Z,9.88
2023-01-29T18:21:02.678Z,8.35
2023-01-29T18:23:31.006Z,8.43
2023-01-29T18:25:57.694Z,9.80
2023-01-29T18:28:25.891Z,9.32
2023-01-29T18:30:52.987Z,12.20
2023-01-29T18:33:19.714Z,9.13
2023-01-29T18:35:49.137Z,8.50
2023-01-29T18:38:16.897Z,8.98
2023-01-29T18:40:43.927Z,8.98
2023-01-29T18:43:10.564Z,8.23
2023-01-29T18:45:37.236Z,8.65
2023-01-29T18:48:04.923Z,12.40
2023-01-29T18:50:31.955Z,9.38
2023-01-29T18:52:58.602Z,11.27
2023-01-29T18:55:26.488Z,9.40
2023-01-29T18:58:26.559Z,8.60
2023-01-29T19:00:41.109Z,9.65
2023-01-29T19:03:07.686Z,10.23
2023-01-29T19:05:34.377Z,10.73
2023-01-29T19:08:01.690Z,10.07
2023-01-29T19:10:28.332Z,11.50
2023-01-29T19:12:55.752Z,9.00
2023-01-29T19:15:22.665Z,10.23
2023-01-29T19:17:50.759Z,11.80
2023-01-29T19:20:17.867Z,10.15
2023-01-29T19:22:44.646Z,9.27
2023-01-29T19:25:11.533Z,10.57
2023-01-29T19:27:38.278Z,9.90
2023-01-29T19:30:05.727Z,10.65
2023-01-29T19:32:32.822Z,10.40
2023-01-29T19:34:59.456Z,8.85
2023-01-29T19:37:26.239Z,8.77
2023-01-29T19:39:53.689Z,9.20
2023-01-29T19:42:20.870Z,7.78
2023-01-29T19:44:47.627Z,8.18
2023-01-29T19:47:14.270Z,8.43
2023-01-29T19:49:41.028Z,8.07
2023-01-29T19:52:14.817Z,8.63
2023-01-29T19:54:46.482Z,8.18
2023-01-29T19:57:13.081Z,8.60
2023-01-29T19:59:45.617Z,7.80
2023-01-29T20:02:12.541Z,7.00
2023-01-29T20:04:43.448Z,7.82
2023-01-29T20:07:10.092Z,8.40
2023-01-29T20:09:36.672Z,8.90
2023-01-29T20:12:03.379Z,8.48
2023-01-29T20:14:29.940Z,8.05
2023-01-29T20:16:56.493Z,8.90
2023-01-29T20:19:23.171Z,8.75
2023-01-29T20:21:49.807Z,7.82
2023-01-29T20:24:16.549Z,8.23
2023-01-29T20:26:46.125Z,8.23
2023-01-29T20:29:13.511Z,9.68
2023-01-29T20:31:40.109Z,8.82
2023-01-29T20:34:06.855Z,9.52
2023-01-29T20:36:36.112Z,9.45
2023-01-29T20:39:03.042Z,8.70
2023-01-29T20:41:29.687Z,9.77
2023-01-29T20:43:56.366Z,9.27
2023-01-29T20:46:23.034Z,9.98
2023-01-29T20:48:53.021Z,9.35
2023-01-29T20:51:20.310Z,11.23
2023-01-29T20:53:47.948Z,10.93
2023-01-29T20:56:17.080Z,10.38
2023-01-29T20:58:46.382Z,10.43
2023-01-29T21:01:18.420Z,12.73
2023-01-29T21:03:46.575Z,15.50
2023-01-29T21:06:14.442Z,14.60
2023-01-29T21:08:41.301Z,15.75
2023-01-29T21:11:09.538Z,19.15
2023-01-29T21:13:36.901Z,17.70
2023-01-29T21:16:04.296Z,16.20
2023-01-29T21:18:32.113Z,18.00
2023-01-29T21:20:58.743Z,16.70
2023-01-29T21:23:25.397Z,16.05
2023-01-29T21:25:52.004Z,13.80
2023-01-29T21:28:18.607Z,14.75
2023-01-29T21:30:46.282Z,18.42
2023-01-29T21:33:15.740Z,19.05
2023-01-29T21:35:42.375Z,18.02
2023-01-29T21:38:09.188Z,18.30
2023-01-29T21:40:35.969Z,18.83
2023-01-29T21:43:12.763Z,18.85
2023-01-29T21:45:40.746Z,19.15
2023-01-29T21:48:08.624Z,19.98
2023-01-29T21:50:35.556Z,20.85
2023-01-29T21:53:02.816Z,19.10
2023-01-29T21:55:35.375Z,18.73
2023-01-29T21:58:02.074Z,19.67
2023-01-29T22:00:28.665Z,20.63
2023-01-29T22:02:55.512Z,21.17
2023-01-29T22:05:22.197Z,22.58
2023-01-29T22:07:49.617Z,21.02
2023-01-29T22:10:18.540Z,20.65
2023-01-29T22:12:45.874Z,20.10
2023-01-29T22:15:13.906Z,21.00
2023-01-29T22:17:41.537Z,20.92
2023-01-29T22:20:13.600Z,21.80
2023-01-29T22:22:40.486Z,20.27
2023-01-29T22:25:07.632Z,20.48
2023-01-29T22:27:34.318Z,18.67
2023-01-29T22:30:01.215Z,19.30
2023-01-29T22:32:27.993Z,21.83
2023-01-29T22:34:54.598Z,20.42
2023-01-29T22:37:21.195Z,31.02
2023-01-29T22:39:47.822Z,23.90
2023-01-29T22:42:14.425Z,20.90
2023-01-29T22:44:41.282Z,22.90
2023-01-29T22:47:08.004Z,20.65
2023-01-29T22:49:34.663Z,19.98
2023-01-29T22:52:10.307Z,20.23
2023-01-29T22:54:44.496Z,19.73
2023-01-29T22:57:13.972Z,18.83
2023-01-29T22:59:40.846Z,18.67
2023-01-29T23:02:08.619Z,18.17
2023-01-29T23:04:35.486Z,18.27
2023-01-29T23:07:02.963Z,18.10
2023-01-29T23:09:29.593Z,18.08
2023-01-29T23:11:56.174Z,18.17
2023-01-29T23:14:22.752Z,16.95
2023-01-29T23:16:49.410Z,17.20
2023-01-29T23:19:15.990Z,18.88
2023-01-29T23:21:42.566Z,17.85
2023-01-29T23:24:10.059Z,17.88
2023-01-29T23:26:55.431Z,16.85
2023-01-29T23:29:22.017Z,16.90
2023-01-29T23:31:48.695Z,16.70
2023-01-29T23:34:18.249Z,18.30
2023-01-29T23:36:47.703Z,17.45
2023-01-29T23:39:14.321Z,18.08
2023-01-29T23:41:40.975Z,17.77
2023-01-29T23:44:07.733Z,17.95
2023-01-29T23:46:34.544Z,17.45
2023-01-29T23:49:01.464Z,16.55
2023-01-29T23:51:28.071Z,15.88
2023-01-29T23:53:54.826Z,15.73
2023-01-29T23:56:24.250Z,15.65
2023-01-29T23:58:57.905Z,16.25
